SWW weather

Avenger Field
Sweetwater, Texas, United States

Public forecast

Using degrees Fahrenheit for public forecast. Weather courtesy of forecast.io.

METAR (pilot weather report)

Retrieved 2019/06/20 08:35 UTC (0 seconds ago):

KSWW 200835Z AUTO 16011KT 10SM CLR 23/17 A2981 RMK AO2 T02250166

TAF (pilot weather forecast)

Closest forecast is Dyess Air Force Base, 31.2 nm (57.7 km) E. Retrieved 2019/06/20 06:16 UTC (2 hours ago):

TAF KDYS 200600Z 2006/2112 15006KT 9999 SKC QNH2981INS BECMG 2008/2009 20012KT 9999 SKC QNH2974INS TEMPO 2015/2018 22012G18KT BECMG 2023/2024 18012KT 9999 SKC QNH2972INS TX38/2021Z TN19/2012Z